createdAt,value
2022-09-20T00:04:57.927Z,9.89
2022-09-20T00:09:59.843Z,9.81
2022-09-20T00:15:01.502Z,9.82
2022-09-20T00:20:03.430Z,9.83
2022-09-20T00:25:05.435Z,9.82
2022-09-20T00:30:07.443Z,9.85
2022-09-20T00:35:08.956Z,9.89
2022-09-20T00:40:10.879Z,9.93
2022-09-20T00:45:12.814Z,9.97
2022-09-20T00:50:14.026Z,10.03
2022-09-20T00:55:15.593Z,10.08
2022-09-20T01:00:17.715Z,10.1
2022-09-20T01:05:19.547Z,10.12
2022-09-20T01:10:21.308Z,10.1
2022-09-20T01:15:23.592Z,10.09
2022-09-20T01:20:25.347Z,10.13
2022-09-20T01:25:27.168Z,10.14
2022-09-20T01:30:28.871Z,10.17
2022-09-20T01:35:30.099Z,10.18
2022-09-20T01:40:31.879Z,10.16
2022-09-20T01:45:33.955Z,10.12
2022-09-20T01:50:35.534Z,10.13
2022-09-20T01:55:36.841Z,10.17
2022-09-20T02:00:38.760Z,10.18
2022-09-20T02:05:40.510Z,10.21
2022-09-20T02:10:42.439Z,10.2
2022-09-20T02:15:43.773Z,10.13
2022-09-20T02:20:45.005Z,10.1
2022-09-20T02:25:46.656Z,10.12
2022-09-20T02:30:48.548Z,10.13
2022-09-20T02:35:49.955Z,10.09
2022-09-20T02:40:51.526Z,10.08
2022-09-20T02:45:53.475Z,10.08
2022-09-20T02:50:55.333Z,10.04
2022-09-20T02:55:57.184Z,10.05
2022-09-20T03:00:58.697Z,10.02
2022-09-20T03:06:00.561Z,9.97
2022-09-20T03:11:02.601Z,9.95
2022-09-20T03:16:04.012Z,9.96
2022-09-20T03:21:06.033Z,9.95
2022-09-20T03:26:07.806Z,9.96
2022-09-20T03:31:09.901Z,9.97
2022-09-20T03:36:11.499Z,9.93
2022-09-20T03:41:13.464Z,9.93
2022-09-20T03:46:15.103Z,9.96
2022-09-20T03:51:17.005Z,9.93
2022-09-20T03:56:18.534Z,9.93
2022-09-20T04:01:19.797Z,9.93
2022-09-20T04:06:21.455Z,9.91
2022-09-20T04:11:23.285Z,9.91
2022-09-20T04:16:25.091Z,9.91
2022-09-20T04:21:26.463Z,9.83
2022-09-20T04:26:27.713Z,9.76
2022-09-20T04:31:29.373Z,9.75
2022-09-20T04:36:31.275Z,9.75
2022-09-20T04:41:33.378Z,9.72
2022-09-20T04:46:35.163Z,9.76
2022-09-20T04:51:36.600Z,9.77
2022-09-20T04:56:38.690Z,9.71
2022-09-20T05:01:40.794Z,9.72
2022-09-20T05:06:42.049Z,9.71
2022-09-20T05:11:43.289Z,9.67
2022-09-20T05:16:44.990Z,9.68
2022-09-20T05:21:46.695Z,9.72
2022-09-20T05:26:48.362Z,9.74
2022-09-20T05:31:50.555Z,9.78
2022-09-20T05:36:52.497Z,9.8
2022-09-20T05:41:53.828Z,9.82
2022-09-20T05:46:55.377Z,9.85
2022-09-20T05:51:56.859Z,9.88
2022-09-20T05:56:58.494Z,9.92
2022-09-20T06:02:00.030Z,9.91
2022-09-20T06:07:01.186Z,9.96
2022-09-20T06:12:02.488Z,9.97
2022-09-20T06:17:04.322Z,9.92
2022-09-20T06:22:05.807Z,9.97
2022-09-20T06:27:07.837Z,10.05
2022-09-20T06:32:09.507Z,10.1
2022-09-20T06:37:11.311Z,10.22
2022-09-20T06:42:13.034Z,10.38
2022-09-20T06:47:14.265Z,10.4
2022-09-20T06:52:16.322Z,10.42
2022-09-20T06:57:18.393Z,10.49
2022-09-20T07:02:20.505Z,10.6
2022-09-20T07:07:21.796Z,10.71
2022-09-20T07:12:23.548Z,10.81
2022-09-20T07:17:25.544Z,10.79
2022-09-20T07:27:29.409Z,10.95
2022-09-20T07:32:30.592Z,11.14
2022-09-20T07:42:34.719Z,11.55
2022-09-20T07:47:36.819Z,11.76
2022-09-20T08:17:46.262Z,12.21
2022-09-20T08:23:01.145Z,12.32
2022-09-20T08:27:49.529Z,12.39
2022-09-20T08:32:51.624Z,12.46
2022-09-20T08:42:55.481Z,12.97
2022-09-20T08:47:58.777Z,13.12
2022-09-20T08:53:01.681Z,13.39
2022-09-20T08:58:02.965Z,13.65
2022-09-20T09:03:02.750Z,13.85
2022-09-20T09:08:04.750Z,14.01
2022-09-20T09:13:06.207Z,14.17
2022-09-20T09:18:07.707Z,14.24
2022-09-20T09:23:08.887Z,14.23
2022-09-20T09:28:10.258Z,14.22
2022-09-20T09:33:12.238Z,14.21
2022-09-20T09:38:14.080Z,14.2
2022-09-20T09:43:15.799Z,14.44
2022-09-20T09:48:17.267Z,14.44
2022-09-20T09:53:18.835Z,14.39
2022-09-20T09:58:20.101Z,14.41
2022-09-20T10:03:21.799Z,14.3
2022-09-20T10:08:22.984Z,14.44
2022-09-20T10:13:24.265Z,14.92
2022-09-20T10:18:26.092Z,15.29
2022-09-20T10:23:51.794Z,15.97
2022-09-20T10:28:29.800Z,16.43
2022-09-20T10:33:32.048Z,16.54
2022-09-20T10:38:33.212Z,16.49
2022-09-20T10:43:34.566Z,16.17
2022-09-20T10:48:35.872Z,15.91
2022-09-20T10:53:37.553Z,15.69
2022-09-20T10:58:39.642Z,15.53
2022-09-20T11:03:41.432Z,15.47
2022-09-20T11:08:42.886Z,15.37
2022-09-20T11:13:44.839Z,15.18
2022-09-20T11:18:46.765Z,15.12
2022-09-20T11:23:48.174Z,15.01
2022-09-20T11:28:49.601Z,14.99
2022-09-20T11:33:51.076Z,15.14
2022-09-20T11:38:53.602Z,15.38
2022-09-20T11:43:55.046Z,15.5
2022-09-20T11:48:56.879Z,15.52
2022-09-20T11:53:58.521Z,15.51
2022-09-20T11:59:00.674Z,15.48
2022-09-20T12:04:31.041Z,15.43
2022-09-20T12:09:04.128Z,15.48
2022-09-20T12:14:05.347Z,15.52
2022-09-20T12:19:06.659Z,15.45
2022-09-20T12:24:08.186Z,15.57
2022-09-20T12:29:09.744Z,15.65
2022-09-20T12:34:11.216Z,15.61
2022-09-20T12:39:14.363Z,15.69
2022-09-20T12:44:13.956Z,15.79
2022-09-20T12:49:16.061Z,15.87
2022-09-20T12:54:17.249Z,15.83
2022-09-20T12:59:18.814Z,15.9
2022-09-20T13:04:20.809Z,15.88
2022-09-20T13:09:22.754Z,15.9
2022-09-20T13:14:23.939Z,15.92
2022-09-20T13:19:25.372Z,15.96
2022-09-20T13:19:31.670Z,15.97
2022-09-20T13:24:32.872Z,16.02
2022-09-20T13:29:34.877Z,16.08
2022-09-20T13:34:37.060Z,16.06
2022-09-20T13:39:38.374Z,16.19
2022-09-20T13:44:40.268Z,16.34
2022-09-20T13:49:41.723Z,16.52
2022-09-20T13:54:43.816Z,16.68
2022-09-20T13:59:45.715Z,16.7
2022-09-20T14:04:47.253Z,16.7
2022-09-20T14:09:48.503Z,16.6
2022-09-20T14:14:50.651Z,16.52
2022-09-20T14:19:52.076Z,16.54
2022-09-20T14:24:53.986Z,16.54
2022-09-20T14:29:55.295Z,16.59
2022-09-20T14:34:56.591Z,16.69
2022-09-20T14:39:58.332Z,16.78
2022-09-20T14:45:00.023Z,16.81
2022-09-20T14:50:01.772Z,16.83
2022-09-20T14:55:03.074Z,16.82
2022-09-20T15:00:04.955Z,16.79
2022-09-20T15:05:06.728Z,16.82
2022-09-20T15:10:07.893Z,16.82
2022-09-20T15:15:09.847Z,16.79
2022-09-20T15:20:11.557Z,16.81
2022-09-20T15:25:18.249Z,16.75
2022-09-20T15:30:14.915Z,16.68
2022-09-20T15:35:16.278Z,16.51
2022-09-20T15:40:17.924Z,16.39
2022-09-20T15:45:19.543Z,16.17
2022-09-20T15:50:21.426Z,15.93
2022-09-20T15:55:23.183Z,15.53
2022-09-20T16:00:25.322Z,14.96
2022-09-20T16:05:26.764Z,14.83
2022-09-20T16:10:28.433Z,14.68
2022-09-20T16:15:30.334Z,14.51
2022-09-20T16:20:31.778Z,14.32
2022-09-20T16:25:32.957Z,14.25
2022-09-20T16:30:35.025Z,14.15
2022-09-20T16:35:36.278Z,14.09
2022-09-20T16:40:38.337Z,14.05
2022-09-20T16:45:40.424Z,14.01
2022-09-20T16:50:42.140Z,13.96
2022-09-20T16:55:43.749Z,13.89
2022-09-20T17:00:45.457Z,13.84
2022-09-20T17:05:47.273Z,13.74
2022-09-20T17:10:49.012Z,13.68
2022-09-20T17:15:50.609Z,13.51
2022-09-20T17:20:51.917Z,13.35
2022-09-20T17:25:53.812Z,13.24
2022-09-20T17:30:55.204Z,13.16
2022-09-20T17:35:57.292Z,13.1
2022-09-20T17:40:58.480Z,13.05
2022-09-20T17:45:59.652Z,13.01
2022-09-20T17:51:01.692Z,12.99
2022-09-20T17:56:03.808Z,12.92
2022-09-20T18:01:08.692Z,12.87
2022-09-20T18:06:07.735Z,12.84
2022-09-20T18:11:09.002Z,12.75
2022-09-20T18:16:10.986Z,12.69
2022-09-20T18:21:12.348Z,12.65
2022-09-20T18:26:14.296Z,12.55
2022-09-20T18:31:16.537Z,12.48
2022-09-20T18:36:18.462Z,12.42
2022-09-20T18:41:20.433Z,12.37
2022-09-20T18:46:22.201Z,12.32
2022-09-20T18:51:23.480Z,12.28
2022-09-20T18:56:24.798Z,12.26
2022-09-20T19:01:26.785Z,12.2
2022-09-20T19:06:28.396Z,12.19
2022-09-20T19:11:30.502Z,12.19
2022-09-20T19:16:32.428Z,12.15
2022-09-20T19:21:34.550Z,12.11
2022-09-20T19:26:36.168Z,12.12
2022-09-20T19:31:38.156Z,12.12
2022-09-20T19:36:39.526Z,12.08
2022-09-20T19:41:41.256Z,12.07
2022-09-20T19:46:42.826Z,12.05
2022-09-20T19:51:44.228Z,11.91
2022-09-20T19:56:45.887Z,11.86
2022-09-20T20:01:47.185Z,11.79
2022-09-20T20:06:48.460Z,11.6
2022-09-20T20:11:49.804Z,11.6
2022-09-20T20:16:51.653Z,11.53
2022-09-20T20:21:53.571Z,11.4
2022-09-20T20:26:54.556Z,11.32
2022-09-20T20:31:56.687Z,11.24
2022-09-20T20:36:58.651Z,11.09
2022-09-20T20:42:02.242Z,11
2022-09-20T20:47:02.354Z,10.95
2022-09-20T20:52:03.903Z,10.83
2022-09-20T20:57:05.756Z,10.75
2022-09-20T21:02:08.252Z,10.68
2022-09-20T21:07:10.091Z,10.56
2022-09-20T21:12:12.012Z,10.47
2022-09-20T21:17:13.839Z,10.38
2022-09-20T21:22:15.564Z,10.29
2022-09-20T21:27:17.434Z,10.18
2022-09-20T21:32:19.598Z,10.1
2022-09-20T21:37:21.607Z,10.02
2022-09-20T22:22:37.079Z,9.34
2022-09-20T22:37:42.432Z,9.13
2022-09-20T22:42:44.056Z,9.06
2022-09-20T22:47:45.635Z,8.96
2022-09-20T23:07:52.640Z,8.72
2022-09-20T23:12:54.047Z,8.68
2022-09-20T23:17:55.700Z,8.6
2022-09-20T23:22:57.694Z,8.54
2022-09-20T23:27:59.322Z,8.5
2022-09-20T23:33:00.492Z,8.45
2022-09-20T23:38:02.130Z,8.41
2022-09-20T23:43:03.937Z,8.41
2022-09-20T23:48:05.234Z,8.39
2022-09-20T23:53:06.541Z,8.35
2022-09-20T23:58:07.840Z,8.37
